Terminal Aerodrome Forecast
Issued by NWS

Home | Current Version | Previous Version | Text Only | Print | Product List | Glossary On
Versions: 1 2 3 4 5 6 7 8 9 10 11 12 13 14 15 16 17 18 19 20 21 22 23 24
220
FTUS46 KSEW 202350
TAFOLM
TAF
KOLM 202350Z 2100/2124 22008KT 6SM -RA BR BKN015 OVC030
     FM210400 20006KT P6SM VCSH SCT010 BKN015 OVC030
     FM211100 36005KT P6SM VCSH SCT005 OVC010
     FM211600 02007KT P6SM -RA SCT010 OVC015
     FM212300 27009KT P6SM SCT025 BKN120=

USA.gov is the U.S. government's official web portal to all federal, state and local government web resources and services.